Terminal Aerodrome Forecast
Issued by NWS

Home | Current Version | Previous Version | Text Only | Print | Product List | Glossary On
Versions: 1 2 3 4 5 6 7 8 9 10 11 12 13
000
FTUS46 KSTO 301720
TAFRBL
TAF
KRBL 301720Z 3018/0118 36025G35KT P6SM SKC
     FM302300 35020G30KT P6SM SKC
     FM010600 34015G25KT P6SM SKC
     FM011500 35025G35KT P6SM SKC=

USA.gov is the U.S. government's official web portal to all federal, state and local government web resources and services.